sensor_id;sensor_type;location;lat;lon;timestamp;P1;durP1;ratioP1;P2;durP2;ratioP2
19113;SDS011;9689;51.052;13.772;2024-02-28T00:00:59;79.28;;;31.08;;
19113;SDS011;9689;51.052;13.772;2024-02-28T00:06:00;76.15;;;29.35;;
19113;SDS011;9689;51.052;13.772;2024-02-28T00:11:02;76.75;;;30.02;;
19113;SDS011;9689;51.052;13.772;2024-02-28T00:16:03;86.55;;;32.72;;
19113;SDS011;9689;51.052;13.772;2024-02-28T00:21:04;72.65;;;30.35;;
19113;SDS011;9689;51.052;13.772;2024-02-28T00:26:06;72.03;;;29.77;;
19113;SDS011;9689;51.052;13.772;2024-02-28T00:31:07;65.88;;;28.17;;
19113;SDS011;9689;51.052;13.772;2024-02-28T00:36:08;67.63;;;28.20;;
19113;SDS011;9689;51.052;13.772;2024-02-28T00:41:10;61.65;;;28.42;;
19113;SDS011;9689;51.052;13.772;2024-02-28T00:46:11;75.47;;;29.08;;
19113;SDS011;9689;51.052;13.772;2024-02-28T00:51:12;61.50;;;28.08;;
19113;SDS011;9689;51.052;13.772;2024-02-28T00:56:14;63.67;;;27.38;;
19113;SDS011;9689;51.052;13.772;2024-02-28T01:01:15;64.50;;;28.10;;
19113;SDS011;9689;51.052;13.772;2024-02-28T01:06:16;68.38;;;27.73;;
19113;SDS011;9689;51.052;13.772;2024-02-28T01:11:18;63.17;;;26.05;;
19113;SDS011;9689;51.052;13.772;2024-02-28T01:16:18;67.57;;;29.27;;
19113;SDS011;9689;51.052;13.772;2024-02-28T01:21:19;63.95;;;27.15;;
19113;SDS011;9689;51.052;13.772;2024-02-28T01:26:21;67.88;;;26.20;;
19113;SDS011;9689;51.052;13.772;2024-02-28T01:31:22;55.92;;;25.52;;
19113;SDS011;9689;51.052;13.772;2024-02-28T01:36:23;58.53;;;24.88;;
19113;SDS011;9689;51.052;13.772;2024-02-28T01:41:25;62.90;;;25.00;;
19113;SDS011;9689;51.052;13.772;2024-02-28T01:46:26;60.15;;;23.48;;
19113;SDS011;9689;51.052;13.772;2024-02-28T01:51:28;58.50;;;23.75;;
19113;SDS011;9689;51.052;13.772;2024-02-28T01:56:30;62.72;;;23.80;;
19113;SDS011;9689;51.052;13.772;2024-02-28T02:01:32;54.35;;;21.10;;
19113;SDS011;9689;51.052;13.772;2024-02-28T02:06:33;66.03;;;22.35;;
19113;SDS011;9689;51.052;13.772;2024-02-28T02:11:40;56.35;;;20.20;;
19113;SDS011;9689;51.052;13.772;2024-02-28T02:16:40;58.25;;;21.00;;
19113;SDS011;9689;51.052;13.772;2024-02-28T02:21:43;63.00;;;22.35;;
19113;SDS011;9689;51.052;13.772;2024-02-28T02:26:56;53.25;;;21.02;;
19113;SDS011;9689;51.052;13.772;2024-02-28T02:31:58;60.15;;;22.98;;
19113;SDS011;9689;51.052;13.772;2024-02-28T02:36:58;64.07;;;23.20;;
19113;SDS011;9689;51.052;13.772;2024-02-28T02:42:01;65.00;;;23.25;;
19113;SDS011;9689;51.052;13.772;2024-02-28T02:47:01;60.65;;;22.70;;
19113;SDS011;9689;51.052;13.772;2024-02-28T02:52:02;70.90;;;24.23;;
19113;SDS011;9689;51.052;13.772;2024-02-28T02:57:04;67.03;;;23.38;;
19113;SDS011;9689;51.052;13.772;2024-02-28T03:02:05;74.85;;;24.00;;
19113;SDS011;9689;51.052;13.772;2024-02-28T03:07:06;71.43;;;24.67;;
19113;SDS011;9689;51.052;13.772;2024-02-28T03:12:08;74.55;;;25.42;;
19113;SDS011;9689;51.052;13.772;2024-02-28T03:17:09;69.25;;;24.10;;
19113;SDS011;9689;51.052;13.772;2024-02-28T03:22:09;61.03;;;24.88;;
19113;SDS011;9689;51.052;13.772;2024-02-28T03:27:11;59.83;;;22.23;;
19113;SDS011;9689;51.052;13.772;2024-02-28T03:32:12;53.90;;;21.90;;
19113;SDS011;9689;51.052;13.772;2024-02-28T03:37:14;59.05;;;20.13;;
19113;SDS011;9689;51.052;13.772;2024-02-28T03:42:16;47.30;;;20.33;;
19113;SDS011;9689;51.052;13.772;2024-02-28T03:47:16;56.38;;;22.20;;
19113;SDS011;9689;51.052;13.772;2024-02-28T03:52:17;63.53;;;21.83;;
19113;SDS011;9689;51.052;13.772;2024-02-28T03:57:19;53.35;;;19.63;;
19113;SDS011;9689;51.052;13.772;2024-02-28T04:02:20;53.75;;;20.25;;
19113;SDS011;9689;51.052;13.772;2024-02-28T04:07:20;54.72;;;20.15;;
19113;SDS011;9689;51.052;13.772;2024-02-28T04:12:22;50.67;;;20.92;;
19113;SDS011;9689;51.052;13.772;2024-02-28T04:17:23;51.72;;;19.92;;
19113;SDS011;9689;51.052;13.772;2024-02-28T04:22:24;56.53;;;22.00;;
19113;SDS011;9689;51.052;13.772;2024-02-28T04:27:26;56.28;;;21.08;;
19113;SDS011;9689;51.052;13.772;2024-02-28T04:32:27;58.70;;;19.40;;
19113;SDS011;9689;51.052;13.772;2024-02-28T04:37:27;53.67;;;18.08;;
19113;SDS011;9689;51.052;13.772;2024-02-28T04:42:29;48.65;;;18.42;;
19113;SDS011;9689;51.052;13.772;2024-02-28T04:47:30;59.22;;;19.48;;
19113;SDS011;9689;51.052;13.772;2024-02-28T04:52:41;59.47;;;20.83;;
19113;SDS011;9689;51.052;13.772;2024-02-28T04:57:43;54.83;;;19.38;;
19113;SDS011;9689;51.052;13.772;2024-02-28T05:02:44;53.85;;;19.42;;
19113;SDS011;9689;51.052;13.772;2024-02-28T05:07:45;56.50;;;18.95;;
19113;SDS011;9689;51.052;13.772;2024-02-28T05:12:47;59.58;;;17.17;;
19113;SDS011;9689;51.052;13.772;2024-02-28T05:17:49;60.45;;;18.98;;
19113;SDS011;9689;51.052;13.772;2024-02-28T05:22:50;63.55;;;19.73;;
19113;SDS011;9689;51.052;13.772;2024-02-28T05:27:53;64.22;;;18.52;;
19113;SDS011;9689;51.052;13.772;2024-02-28T05:32:53;69.93;;;21.65;;
19113;SDS011;9689;51.052;13.772;2024-02-28T05:37:55;51.35;;;18.88;;
19113;SDS011;9689;51.052;13.772;2024-02-28T05:42:57;55.90;;;18.42;;
19113;SDS011;9689;51.052;13.772;2024-02-28T05:47:58;55.25;;;18.42;;
19113;SDS011;9689;51.052;13.772;2024-02-28T05:52:59;62.80;;;20.05;;
19113;SDS011;9689;51.052;13.772;2024-02-28T05:58:01;55.72;;;19.45;;
19113;SDS011;9689;51.052;13.772;2024-02-28T06:03:02;56.83;;;17.13;;
19113;SDS011;9689;51.052;13.772;2024-02-28T06:08:04;67.03;;;20.27;;
19113;SDS011;9689;51.052;13.772;2024-02-28T06:13:07;63.28;;;18.95;;
19113;SDS011;9689;51.052;13.772;2024-02-28T06:18:07;69.45;;;20.25;;
19113;SDS011;9689;51.052;13.772;2024-02-28T06:23:08;71.95;;;21.67;;
19113;SDS011;9689;51.052;13.772;2024-02-28T06:28:23;68.90;;;18.40;;
19113;SDS011;9689;51.052;13.772;2024-02-28T06:33:24;53.63;;;17.67;;
19113;SDS011;9689;51.052;13.772;2024-02-28T06:38:25;59.38;;;20.85;;
19113;SDS011;9689;51.052;13.772;2024-02-28T06:43:27;55.45;;;18.90;;
19113;SDS011;9689;51.052;13.772;2024-02-28T06:48:27;71.63;;;21.02;;
19113;SDS011;9689;51.052;13.772;2024-02-28T06:53:28;59.30;;;20.17;;
19113;SDS011;9689;51.052;13.772;2024-02-28T06:58:30;61.20;;;21.63;;
19113;SDS011;9689;51.052;13.772;2024-02-28T07:03:31;60.97;;;21.05;;
19113;SDS011;9689;51.052;13.772;2024-02-28T07:08:33;70.60;;;23.17;;
19113;SDS011;9689;51.052;13.772;2024-02-28T07:13:35;72.85;;;23.10;;
19113;SDS011;9689;51.052;13.772;2024-02-28T07:18:35;80.47;;;26.85;;
19113;SDS011;9689;51.052;13.772;2024-02-28T07:23:38;79.68;;;24.38;;
19113;SDS011;9689;51.052;13.772;2024-02-28T07:28:41;62.83;;;22.02;;
19113;SDS011;9689;51.052;13.772;2024-02-28T07:33:42;61.65;;;20.23;;
19113;SDS011;9689;51.052;13.772;2024-02-28T07:38:42;51.38;;;18.65;;
19113;SDS011;9689;51.052;13.772;2024-02-28T07:43:45;51.80;;;17.90;;
19113;SDS011;9689;51.052;13.772;2024-02-28T07:48:45;48.30;;;18.88;;
19113;SDS011;9689;51.052;13.772;2024-02-28T07:53:48;46.22;;;17.15;;
19113;SDS011;9689;51.052;13.772;2024-02-28T07:58:50;44.45;;;16.83;;
19113;SDS011;9689;51.052;13.772;2024-02-28T08:03:51;41.95;;;16.98;;
19113;SDS011;9689;51.052;13.772;2024-02-28T08:08:53;42.63;;;16.58;;
19113;SDS011;9689;51.052;13.772;2024-02-28T08:13:55;53.30;;;19.08;;
19113;SDS011;9689;51.052;13.772;2024-02-28T08:18:56;53.50;;;17.50;;
19113;SDS011;9689;51.052;13.772;2024-02-28T08:23:59;49.10;;;18.38;;
19113;SDS011;9689;51.052;13.772;2024-02-28T08:29:04;56.33;;;20.17;;
19113;SDS011;9689;51.052;13.772;2024-02-28T08:34:05;50.05;;;19.05;;
19113;SDS011;9689;51.052;13.772;2024-02-28T08:39:05;45.00;;;16.88;;
19113;SDS011;9689;51.052;13.772;2024-02-28T08:44:10;47.08;;;18.58;;
19113;SDS011;9689;51.052;13.772;2024-02-28T08:49:11;50.22;;;18.85;;
19113;SDS011;9689;51.052;13.772;2024-02-28T08:54:11;45.88;;;17.60;;
19113;SDS011;9689;51.052;13.772;2024-02-28T08:59:13;49.28;;;18.27;;
19113;SDS011;9689;51.052;13.772;2024-02-28T09:04:14;42.72;;;17.08;;
19113;SDS011;9689;51.052;13.772;2024-02-28T09:09:15;42.95;;;15.48;;
19113;SDS011;9689;51.052;13.772;2024-02-28T09:14:17;30.00;;;13.07;;
19113;SDS011;9689;51.052;13.772;2024-02-28T09:19:18;34.83;;;14.10;;
19113;SDS011;9689;51.052;13.772;2024-02-28T09:24:19;30.77;;;12.40;;
19113;SDS011;9689;51.052;13.772;2024-02-28T09:29:21;32.72;;;13.23;;
19113;SDS011;9689;51.052;13.772;2024-02-28T09:34:22;31.80;;;13.65;;
19113;SDS011;9689;51.052;13.772;2024-02-28T09:39:22;36.85;;;15.65;;
19113;SDS011;9689;51.052;13.772;2024-02-28T09:44:26;34.47;;;15.82;;
19113;SDS011;9689;51.052;13.772;2024-02-28T09:49:27;37.05;;;15.18;;
19113;SDS011;9689;51.052;13.772;2024-02-28T09:54:31;38.20;;;16.38;;
19113;SDS011;9689;51.052;13.772;2024-02-28T09:59:33;40.75;;;15.77;;
19113;SDS011;9689;51.052;13.772;2024-02-28T10:04:50;40.30;;;16.30;;
19113;SDS011;9689;51.052;13.772;2024-02-28T10:09:52;52.63;;;19.67;;
19113;SDS011;9689;51.052;13.772;2024-02-28T10:14:54;46.90;;;17.48;;
19113;SDS011;9689;51.052;13.772;2024-02-28T10:19:57;41.60;;;15.43;;
19113;SDS011;9689;51.052;13.772;2024-02-28T10:25:00;46.17;;;20.10;;
19113;SDS011;9689;51.052;13.772;2024-02-28T10:30:02;54.88;;;21.45;;
19113;SDS011;9689;51.052;13.772;2024-02-28T10:35:05;51.00;;;20.65;;
19113;SDS011;9689;51.052;13.772;2024-02-28T10:40:12;45.67;;;19.15;;
19113;SDS011;9689;51.052;13.772;2024-02-28T10:45:15;42.83;;;19.67;;
19113;SDS011;9689;51.052;13.772;2024-02-28T10:50:37;52.45;;;20.15;;
19113;SDS011;9689;51.052;13.772;2024-02-28T10:55:39;48.42;;;20.50;;
19113;SDS011;9689;51.052;13.772;2024-02-28T11:00:42;50.95;;;20.27;;
19113;SDS011;9689;51.052;13.772;2024-02-28T11:05:45;50.05;;;21.27;;
19113;SDS011;9689;51.052;13.772;2024-02-28T11:10:46;46.53;;;20.20;;
19113;SDS011;9689;51.052;13.772;2024-02-28T11:15:48;50.70;;;19.85;;
19113;SDS011;9689;51.052;13.772;2024-02-28T11:20:48;41.63;;;18.90;;
19113;SDS011;9689;51.052;13.772;2024-02-28T11:25:50;43.22;;;18.40;;
19113;SDS011;9689;51.052;13.772;2024-02-28T11:30:52;38.22;;;16.30;;
19113;SDS011;9689;51.052;13.772;2024-02-28T11:35:54;37.10;;;15.95;;
19113;SDS011;9689;51.052;13.772;2024-02-28T11:40:55;36.75;;;16.63;;
19113;SDS011;9689;51.052;13.772;2024-02-28T11:45:57;35.38;;;16.45;;
19113;SDS011;9689;51.052;13.772;2024-02-28T11:50:58;34.47;;;15.23;;
19113;SDS011;9689;51.052;13.772;2024-02-28T11:55:59;34.05;;;14.70;;
19113;SDS011;9689;51.052;13.772;2024-02-28T12:01:01;32.90;;;15.13;;
19113;SDS011;9689;51.052;13.772;2024-02-28T12:06:03;36.88;;;16.20;;
19113;SDS011;9689;51.052;13.772;2024-02-28T12:11:06;37.40;;;15.80;;
19113;SDS011;9689;51.052;13.772;2024-02-28T12:16:09;40.05;;;17.10;;
19113;SDS011;9689;51.052;13.772;2024-02-28T12:21:09;34.15;;;14.77;;
19113;SDS011;9689;51.052;13.772;2024-02-28T12:26:10;44.15;;;17.08;;
19113;SDS011;9689;51.052;13.772;2024-02-28T12:31:12;41.53;;;17.35;;
19113;SDS011;9689;51.052;13.772;2024-02-28T12:36:13;43.47;;;17.98;;
19113;SDS011;9689;51.052;13.772;2024-02-28T12:41:15;35.90;;;17.67;;
19113;SDS011;9689;51.052;13.772;2024-02-28T12:46:18;38.60;;;17.98;;
19113;SDS011;9689;51.052;13.772;2024-02-28T12:51:35;41.83;;;19.05;;
19113;SDS011;9689;51.052;13.772;2024-02-28T12:56:37;50.03;;;20.73;;
19113;SDS011;9689;51.052;13.772;2024-02-28T13:01:40;43.20;;;18.70;;
19113;SDS011;9689;51.052;13.772;2024-02-28T13:06:41;42.95;;;18.73;;
19113;SDS011;9689;51.052;13.772;2024-02-28T13:11:41;45.33;;;18.77;;
19113;SDS011;9689;51.052;13.772;2024-02-28T13:16:44;45.28;;;19.27;;
19113;SDS011;9689;51.052;13.772;2024-02-28T13:21:44;43.45;;;18.88;;
19113;SDS011;9689;51.052;13.772;2024-02-28T13:26:45;50.55;;;19.60;;
19113;SDS011;9689;51.052;13.772;2024-02-28T13:31:47;35.92;;;18.38;;
19113;SDS011;9689;51.052;13.772;2024-02-28T13:36:48;39.90;;;19.10;;
19113;SDS011;9689;51.052;13.772;2024-02-28T13:41:50;38.38;;;17.92;;
19113;SDS011;9689;51.052;13.772;2024-02-28T13:46:53;35.20;;;17.73;;
19113;SDS011;9689;51.052;13.772;2024-02-28T13:51:54;33.50;;;17.25;;
19113;SDS011;9689;51.052;13.772;2024-02-28T13:56:55;41.33;;;20.52;;
19113;SDS011;9689;51.052;13.772;2024-02-28T14:01:57;36.95;;;19.08;;
19113;SDS011;9689;51.052;13.772;2024-02-28T14:06:59;40.55;;;19.88;;
19113;SDS011;9689;51.052;13.772;2024-02-28T14:12:00;35.58;;;19.58;;
19113;SDS011;9689;51.052;13.772;2024-02-28T14:17:02;37.35;;;20.77;;
19113;SDS011;9689;51.052;13.772;2024-02-28T14:22:03;34.03;;;19.52;;
19113;SDS011;9689;51.052;13.772;2024-02-28T14:27:04;39.10;;;19.88;;
19113;SDS011;9689;51.052;13.772;2024-02-28T14:32:07;36.97;;;21.40;;
19113;SDS011;9689;51.052;13.772;2024-02-28T14:37:08;37.53;;;19.95;;
19113;SDS011;9689;51.052;13.772;2024-02-28T14:42:09;39.47;;;20.23;;
19113;SDS011;9689;51.052;13.772;2024-02-28T14:47:12;37.80;;;20.25;;
19113;SDS011;9689;51.052;13.772;2024-02-28T14:52:12;40.38;;;21.80;;
19113;SDS011;9689;51.052;13.772;2024-02-28T14:57:14;36.97;;;20.52;;
19113;SDS011;9689;51.052;13.772;2024-02-28T15:02:16;40.78;;;22.80;;
19113;SDS011;9689;51.052;13.772;2024-02-28T15:07:17;44.20;;;23.55;;
19113;SDS011;9689;51.052;13.772;2024-02-28T15:12:18;40.80;;;22.35;;
19113;SDS011;9689;51.052;13.772;2024-02-28T15:17:20;40.58;;;22.23;;
19113;SDS011;9689;51.052;13.772;2024-02-28T15:22:21;36.72;;;21.40;;
19113;SDS011;9689;51.052;13.772;2024-02-28T15:27:22;38.67;;;21.52;;
19113;SDS011;9689;51.052;13.772;2024-02-28T15:32:25;36.85;;;21.60;;
19113;SDS011;9689;51.052;13.772;2024-02-28T15:37:26;42.42;;;22.85;;
19113;SDS011;9689;51.052;13.772;2024-02-28T15:42:26;48.28;;;23.48;;
19113;SDS011;9689;51.052;13.772;2024-02-28T15:47:29;39.20;;;22.00;;
19113;SDS011;9689;51.052;13.772;2024-02-28T15:52:32;45.55;;;24.85;;
19113;SDS011;9689;51.052;13.772;2024-02-28T15:57:33;41.85;;;23.27;;
19113;SDS011;9689;51.052;13.772;2024-02-28T16:02:35;41.67;;;23.90;;
19113;SDS011;9689;51.052;13.772;2024-02-28T16:07:36;38.13;;;22.08;;
19113;SDS011;9689;51.052;13.772;2024-02-28T16:12:37;39.15;;;23.05;;
19113;SDS011;9689;51.052;13.772;2024-02-28T16:17:39;40.75;;;24.25;;
19113;SDS011;9689;51.052;13.772;2024-02-28T16:22:40;46.25;;;25.80;;
19113;SDS011;9689;51.052;13.772;2024-02-28T16:27:41;44.20;;;26.38;;
19113;SDS011;9689;51.052;13.772;2024-02-28T16:32:44;43.58;;;24.25;;
19113;SDS011;9689;51.052;13.772;2024-02-28T16:37:45;46.15;;;25.15;;
19113;SDS011;9689;51.052;13.772;2024-02-28T16:42:46;48.53;;;25.42;;
19113;SDS011;9689;51.052;13.772;2024-02-28T16:47:48;55.00;;;27.02;;
19113;SDS011;9689;51.052;13.772;2024-02-28T16:52:49;47.95;;;25.52;;
19113;SDS011;9689;51.052;13.772;2024-02-28T16:57:50;48.50;;;25.52;;
19113;SDS011;9689;51.052;13.772;2024-02-28T17:02:52;52.25;;;25.58;;
19113;SDS011;9689;51.052;13.772;2024-02-28T17:07:53;48.70;;;25.10;;
19113;SDS011;9689;51.052;13.772;2024-02-28T17:12:54;53.10;;;27.50;;
19113;SDS011;9689;51.052;13.772;2024-02-28T17:17:56;57.92;;;26.48;;
19113;SDS011;9689;51.052;13.772;2024-02-28T17:22:57;53.92;;;27.73;;
19113;SDS011;9689;51.052;13.772;2024-02-28T17:27:58;65.63;;;30.67;;
19113;SDS011;9689;51.052;13.772;2024-02-28T17:33:00;62.60;;;29.25;;
19113;SDS011;9689;51.052;13.772;2024-02-28T17:38:01;58.63;;;27.30;;
19113;SDS011;9689;51.052;13.772;2024-02-28T17:43:02;83.72;;;36.42;;
19113;SDS011;9689;51.052;13.772;2024-02-28T17:48:05;56.67;;;27.48;;
19113;SDS011;9689;51.052;13.772;2024-02-28T17:53:07;53.08;;;25.70;;
19113;SDS011;9689;51.052;13.772;2024-02-28T17:58:08;52.75;;;26.02;;
19113;SDS011;9689;51.052;13.772;2024-02-28T18:03:10;62.25;;;28.13;;
19113;SDS011;9689;51.052;13.772;2024-02-28T18:08:12;58.38;;;27.48;;
19113;SDS011;9689;51.052;13.772;2024-02-28T18:13:13;62.75;;;29.83;;
19113;SDS011;9689;51.052;13.772;2024-02-28T18:18:18;61.78;;;27.20;;
19113;SDS011;9689;51.052;13.772;2024-02-28T18:23:19;59.67;;;27.35;;
19113;SDS011;9689;51.052;13.772;2024-02-28T18:28:32;61.03;;;29.45;;
19113;SDS011;9689;51.052;13.772;2024-02-28T18:33:37;68.72;;;31.55;;
19113;SDS011;9689;51.052;13.772;2024-02-28T18:38:38;68.28;;;32.00;;
19113;SDS011;9689;51.052;13.772;2024-02-28T18:43:39;64.15;;;29.63;;
19113;SDS011;9689;51.052;13.772;2024-02-28T18:48:43;69.35;;;32.10;;
19113;SDS011;9689;51.052;13.772;2024-02-28T18:53:44;75.03;;;32.03;;
19113;SDS011;9689;51.052;13.772;2024-02-28T18:58:45;73.70;;;33.25;;
19113;SDS011;9689;51.052;13.772;2024-02-28T19:03:47;67.47;;;32.35;;
19113;SDS011;9689;51.052;13.772;2024-02-28T19:08:49;70.85;;;31.73;;
19113;SDS011;9689;51.052;13.772;2024-02-28T19:13:52;66.45;;;31.13;;
19113;SDS011;9689;51.052;13.772;2024-02-28T19:18:56;75.20;;;33.85;;
19113;SDS011;9689;51.052;13.772;2024-02-28T19:23:57;73.97;;;32.92;;
19113;SDS011;9689;51.052;13.772;2024-02-28T19:28:58;75.10;;;33.00;;
19113;SDS011;9689;51.052;13.772;2024-02-28T19:34:00;71.40;;;31.65;;
19113;SDS011;9689;51.052;13.772;2024-02-28T19:39:01;67.15;;;29.42;;
19113;SDS011;9689;51.052;13.772;2024-02-28T19:44:03;78.07;;;30.23;;
19113;SDS011;9689;51.052;13.772;2024-02-28T19:49:07;78.20;;;31.55;;
19113;SDS011;9689;51.052;13.772;2024-02-28T19:54:09;68.93;;;29.00;;
19113;SDS011;9689;51.052;13.772;2024-02-28T19:59:10;68.20;;;28.52;;
19113;SDS011;9689;51.052;13.772;2024-02-28T20:04:12;62.67;;;29.00;;
19113;SDS011;9689;51.052;13.772;2024-02-28T20:09:13;71.13;;;28.77;;
19113;SDS011;9689;51.052;13.772;2024-02-28T20:14:14;77.10;;;30.67;;
19113;SDS011;9689;51.052;13.772;2024-02-28T20:19:16;69.72;;;28.65;;
19113;SDS011;9689;51.052;13.772;2024-02-28T20:24:17;72.05;;;29.33;;
19113;SDS011;9689;51.052;13.772;2024-02-28T20:29:18;74.53;;;30.92;;
19113;SDS011;9689;51.052;13.772;2024-02-28T20:34:20;71.38;;;29.17;;
19113;SDS011;9689;51.052;13.772;2024-02-28T20:39:20;71.95;;;29.35;;
19113;SDS011;9689;51.052;13.772;2024-02-28T20:44:21;79.00;;;30.77;;
19113;SDS011;9689;51.052;13.772;2024-02-28T20:49:24;71.82;;;28.77;;
19113;SDS011;9689;51.052;13.772;2024-02-28T20:54:25;77.25;;;29.70;;
19113;SDS011;9689;51.052;13.772;2024-02-28T20:59:27;77.45;;;29.27;;
19113;SDS011;9689;51.052;13.772;2024-02-28T21:04:34;72.53;;;28.92;;
19113;SDS011;9689;51.052;13.772;2024-02-28T21:09:34;88.13;;;30.42;;
19113;SDS011;9689;51.052;13.772;2024-02-28T21:14:35;71.13;;;28.65;;
19113;SDS011;9689;51.052;13.772;2024-02-28T21:19:40;72.45;;;28.73;;
19113;SDS011;9689;51.052;13.772;2024-02-28T21:24:41;82.55;;;28.73;;
19113;SDS011;9689;51.052;13.772;2024-02-28T21:29:41;71.85;;;28.02;;
19113;SDS011;9689;51.052;13.772;2024-02-28T21:34:43;77.53;;;28.20;;
19113;SDS011;9689;51.052;13.772;2024-02-28T21:39:44;81.38;;;32.15;;
19113;SDS011;9689;51.052;13.772;2024-02-28T21:44:45;74.13;;;27.40;;
19113;SDS011;9689;51.052;13.772;2024-02-28T21:49:48;73.47;;;25.95;;
19113;SDS011;9689;51.052;13.772;2024-02-28T21:54:50;59.00;;;23.85;;
19113;SDS011;9689;51.052;13.772;2024-02-28T21:59:51;58.80;;;24.42;;
19113;SDS011;9689;51.052;13.772;2024-02-28T22:04:53;59.67;;;23.08;;
19113;SDS011;9689;51.052;13.772;2024-02-28T22:09:54;69.28;;;23.17;;
19113;SDS011;9689;51.052;13.772;2024-02-28T22:14:55;56.25;;;22.58;;
19113;SDS011;9689;51.052;13.772;2024-02-28T22:19:57;60.42;;;23.08;;
19113;SDS011;9689;51.052;13.772;2024-02-28T22:24:57;61.88;;;22.75;;
19113;SDS011;9689;51.052;13.772;2024-02-28T22:29:58;62.28;;;22.67;;
19113;SDS011;9689;51.052;13.772;2024-02-28T22:35:00;65.00;;;24.13;;
19113;SDS011;9689;51.052;13.772;2024-02-28T22:40:02;57.13;;;23.13;;
19113;SDS011;9689;51.052;13.772;2024-02-28T22:45:04;54.90;;;21.90;;
19113;SDS011;9689;51.052;13.772;2024-02-28T22:50:07;66.30;;;24.42;;
19113;SDS011;9689;51.052;13.772;2024-02-28T22:55:08;66.80;;;24.55;;
19113;SDS011;9689;51.052;13.772;2024-02-28T23:00:09;55.15;;;21.70;;
19113;SDS011;9689;51.052;13.772;2024-02-28T23:05:30;56.28;;;20.50;;
19113;SDS011;9689;51.052;13.772;2024-02-28T23:10:31;56.88;;;22.30;;
19113;SDS011;9689;51.052;13.772;2024-02-28T23:15:32;58.67;;;22.52;;
19113;SDS011;9689;51.052;13.772;2024-02-28T23:20:35;59.13;;;22.98;;
19113;SDS011;9689;51.052;13.772;2024-02-28T23:25:35;60.22;;;21.45;;
19113;SDS011;9689;51.052;13.772;2024-02-28T23:30:36;60.00;;;23.02;;
19113;SDS011;9689;51.052;13.772;2024-02-28T23:35:38;61.50;;;23.20;;
19113;SDS011;9689;51.052;13.772;2024-02-28T23:40:39;62.83;;;22.45;;
19113;SDS011;9689;51.052;13.772;2024-02-28T23:45:40;56.88;;;22.23;;
19113;SDS011;9689;51.052;13.772;2024-02-28T23:50:48;55.17;;;20.55;;
19113;SDS011;9689;51.052;13.772;2024-02-28T23:55:49;54.40;;;21.17;;
